sensor_id;sensor_type;location;lat;lon;timestamp;pressure;altitude;pressure_sealevel;temperature;humidity
52441;BME280;39611;46.062;8.950;2023-02-23T00:01:41;96322.28;;;9.28;100.00
52441;BME280;39611;46.062;8.950;2023-02-23T00:04:07;96319.16;;;9.26;100.00
52441;BME280;39611;46.062;8.950;2023-02-23T00:06:35;96310.72;;;9.19;100.00
52441;BME280;39611;46.062;8.950;2023-02-23T00:09:03;96312.84;;;9.12;100.00
52441;BME280;39611;46.062;8.950;2023-02-23T00:11:56;96303.59;;;9.09;100.00
52441;BME280;39611;46.062;8.950;2023-02-23T00:14:27;96303.59;;;9.19;100.00
52441;BME280;39611;46.062;8.950;2023-02-23T00:16:57;96311.75;;;9.18;100.00
52441;BME280;39611;46.062;8.950;2023-02-23T00:19:25;96305.47;;;9.04;100.00
52441;BME280;39611;46.062;8.950;2023-02-23T00:21:52;96308.13;;;8.99;100.00
52441;BME280;39611;46.062;8.950;2023-02-23T00:24:19;96304.94;;;8.96;100.00
52441;BME280;39611;46.062;8.950;2023-02-23T00:26:47;96311.00;;;8.97;100.00
52441;BME280;39611;46.062;8.950;2023-02-23T00:29:16;96305.75;;;8.92;100.00
52441;BME280;39611;46.062;8.950;2023-02-23T00:31:44;96314.97;;;8.89;100.00
52441;BME280;39611;46.062;8.950;2023-02-23T00:34:13;96310.78;;;8.83;100.00
52441;BME280;39611;46.062;8.950;2023-02-23T00:36:40;96307.59;;;8.91;100.00
52441;BME280;39611;46.062;8.950;2023-02-23T00:39:10;96300.47;;;8.87;100.00
52441;BME280;39611;46.062;8.950;2023-02-23T00:41:55;96306.56;;;8.87;100.00
52441;BME280;39611;46.062;8.950;2023-02-23T00:44:23;96301.28;;;8.87;100.00
52441;BME280;39611;46.062;8.950;2023-02-23T00:46:50;96310.75;;;8.93;100.00
52441;BME280;39611;46.062;8.950;2023-02-23T00:49:19;96307.59;;;8.91;100.00
52441;BME280;39611;46.062;8.950;2023-02-23T00:51:47;96306.50;;;9.03;100.00
52441;BME280;39611;46.062;8.950;2023-02-23T00:54:15;96310.50;;;8.95;100.00
52441;BME280;39611;46.062;8.950;2023-02-23T00:56:42;96306.81;;;8.96;100.00
52441;BME280;39611;46.062;8.950;2023-02-23T00:59:09;96305.22;;;8.95;100.00
52441;BME280;39611;46.062;8.950;2023-02-23T01:01:35;96303.38;;;8.90;100.00
52441;BME280;39611;46.062;8.950;2023-02-23T01:04:04;96300.22;;;8.83;100.00
52441;BME280;39611;46.062;8.950;2023-02-23T01:06:31;96301.78;;;8.84;100.00
52441;BME280;39611;46.062;8.950;2023-02-23T01:08:58;96303.91;;;8.92;100.00
52441;BME280;39611;46.062;8.950;2023-02-23T01:11:26;96304.41;;;8.89;100.00
52441;BME280;39611;46.062;8.950;2023-02-23T01:13:55;96301.00;;;8.84;100.00
52441;BME280;39611;46.062;8.950;2023-02-23T01:16:24;96303.63;;;8.84;100.00
52441;BME280;39611;46.062;8.950;2023-02-23T01:18:55;96310.78;;;8.83;100.00
52441;BME280;39611;46.062;8.950;2023-02-23T01:21:33;96308.91;;;8.89;100.00
52441;BME280;39611;46.062;8.950;2023-02-23T01:24:00;96301.78;;;9.00;100.00
52441;BME280;39611;46.062;8.950;2023-02-23T01:26:30;96301.53;;;8.91;100.00
52441;BME280;39611;46.062;8.950;2023-02-23T01:29:05;96301.78;;;8.84;100.00
52441;BME280;39611;46.062;8.950;2023-02-23T01:31:34;96300.75;;;8.80;100.00
52441;BME280;39611;46.062;8.950;2023-02-23T01:34:02;96299.44;;;8.83;100.00
52441;BME280;39611;46.062;8.950;2023-02-23T01:36:32;96299.16;;;8.79;100.00
52441;BME280;39611;46.062;8.950;2023-02-23T01:38:59;96303.66;;;8.73;100.00
52441;BME280;39611;46.062;8.950;2023-02-23T01:41:27;96296.00;;;8.72;100.00
52441;BME280;39611;46.062;8.950;2023-02-23T01:44:02;96292.56;;;8.71;100.00
52441;BME280;39611;46.062;8.950;2023-02-23T01:46:31;96292.06;;;8.74;100.00
52441;BME280;39611;46.062;8.950;2023-02-23T01:48:58;96292.84;;;8.75;100.00
52441;BME280;39611;46.062;8.950;2023-02-23T01:51:39;96298.13;;;8.75;100.00
52441;BME280;39611;46.062;8.950;2023-02-23T01:54:09;96289.13;;;8.76;100.00
52441;BME280;39611;46.062;8.950;2023-02-23T01:56:42;96285.47;;;8.82;100.00
52441;BME280;39611;46.062;8.950;2023-02-23T01:59:12;96291.78;;;8.81;100.00
52441;BME280;39611;46.062;8.950;2023-02-23T02:01:41;96286.78;;;8.80;100.00
52441;BME280;39611;46.062;8.950;2023-02-23T02:04:09;96282.53;;;8.79;100.00
52441;BME280;39611;46.062;8.950;2023-02-23T02:06:43;96270.13;;;8.89;100.00
52441;BME280;39611;46.062;8.950;2023-02-23T02:09:14;96281.75;;;8.93;100.00
52441;BME280;39611;46.062;8.950;2023-02-23T02:11:45;96275.41;;;8.89;100.00
52441;BME280;39611;46.062;8.950;2023-02-23T02:14:16;96283.59;;;8.83;100.00
52441;BME280;39611;46.062;8.950;2023-02-23T02:24:53;96271.72;;;8.90;100.00
52441;BME280;39611;46.062;8.950;2023-02-23T02:27:51;96271.47;;;8.82;100.00
52441;BME280;39611;46.062;8.950;2023-02-23T02:41:24;96268.03;;;8.76;100.00
52441;BME280;39611;46.062;8.950;2023-02-23T02:44:04;96269.63;;;8.77;100.00
52441;BME280;39611;46.062;8.950;2023-02-23T02:46:37;96264.84;;;8.84;100.00
52441;BME280;39611;46.062;8.950;2023-02-23T02:49:28;96260.13;;;8.81;100.00
52441;BME280;39611;46.062;8.950;2023-02-23T02:52:10;96253.53;;;8.73;100.00
52441;BME280;39611;46.062;8.950;2023-02-23T02:54:43;96263.31;;;8.73;100.00
52441;BME280;39611;46.062;8.950;2023-02-23T02:57:14;96254.31;;;8.74;100.00
52441;BME280;39611;46.062;8.950;2023-02-23T02:59:44;96261.19;;;8.75;100.00
52441;BME280;39611;46.062;8.950;2023-02-23T03:02:31;96252.50;;;8.80;100.00
52441;BME280;39611;46.062;8.950;2023-02-23T03:05:19;96249.03;;;8.84;100.00
52441;BME280;39611;46.062;8.950;2023-02-23T03:08:11;96255.38;;;8.83;100.00
52441;BME280;39611;46.062;8.950;2023-02-23T03:11:05;96255.38;;;8.78;100.00
52441;BME280;39611;46.062;8.950;2023-02-23T03:14:01;96255.16;;;8.69;100.00
52441;BME280;39611;46.062;8.950;2023-02-23T03:17:45;96249.06;;;8.74;100.00
52441;BME280;39611;46.062;8.950;2023-02-23T03:20:25;96250.66;;;8.75;100.00
52441;BME280;39611;46.062;8.950;2023-02-23T03:23:20;96249.88;;;8.74;100.00
52441;BME280;39611;46.062;8.950;2023-02-23T03:26:17;96249.06;;;8.74;100.00
52441;BME280;39611;46.062;8.950;2023-02-23T03:35:00;96244.59;;;8.59;100.00
52441;BME280;39611;46.062;8.950;2023-02-23T03:38:03;96250.66;;;8.55;100.00
52441;BME280;39611;46.062;8.950;2023-02-23T03:40:50;96248.56;;;8.57;100.00
52441;BME280;39611;46.062;8.950;2023-02-23T03:43:41;96244.59;;;8.64;100.00
52441;BME280;39611;46.062;8.950;2023-02-23T03:46:30;96249.59;;;8.71;100.00
52441;BME280;39611;46.062;8.950;2023-02-23T03:49:17;96246.72;;;8.62;100.00
52441;BME280;39611;46.062;8.950;2023-02-23T03:52:14;96244.59;;;8.64;100.00
52441;BME280;39611;46.062;8.950;2023-02-23T03:55:04;96251.97;;;8.57;100.00
52441;BME280;39611;46.062;8.950;2023-02-23T03:57:53;96254.31;;;8.69;100.00
52441;BME280;39611;46.062;8.950;2023-02-23T04:00:45;96250.66;;;8.60;100.00
52441;BME280;39611;46.062;8.950;2023-02-23T04:03:34;96254.09;;;8.60;100.00
52441;BME280;39611;46.062;8.950;2023-02-23T04:06:23;96248.03;;;8.65;100.00
52441;BME280;39611;46.062;8.950;2023-02-23T04:09:09;96254.84;;;8.71;100.00
52441;BME280;39611;46.062;8.950;2023-02-23T04:12:05;96249.06;;;8.74;100.00
52441;BME280;39611;46.062;8.950;2023-02-23T04:17:45;96254.34;;;8.64;100.00
52441;BME280;39611;46.062;8.950;2023-02-23T04:20:12;96252.25;;;8.56;100.00
52441;BME280;39611;46.062;8.950;2023-02-23T04:22:39;96248.81;;;8.65;100.00
52441;BME280;39611;46.062;8.950;2023-02-23T04:25:06;96252.75;;;8.73;100.00
52441;BME280;39611;46.062;8.950;2023-02-23T04:27:35;96256.44;;;8.82;100.00
52441;BME280;39611;46.062;8.950;2023-02-23T04:30:01;96260.13;;;8.66;100.00
52441;BME280;39611;46.062;8.950;2023-02-23T04:32:29;96259.09;;;8.57;100.00
52441;BME280;39611;46.062;8.950;2023-02-23T04:34:55;96253.31;;;8.55;100.00
52441;BME280;39611;46.062;8.950;2023-02-23T04:37:22;96255.16;;;8.54;100.00
52441;BME280;39611;46.062;8.950;2023-02-23T04:39:48;96258.81;;;8.53;100.00
52441;BME280;39611;46.062;8.950;2023-02-23T04:42:16;96250.41;;;8.51;100.00
52441;BME280;39611;46.062;8.950;2023-02-23T04:44:43;96253.56;;;8.53;100.00
52441;BME280;39611;46.062;8.950;2023-02-23T04:47:11;96248.03;;;8.55;100.00
52441;BME280;39611;46.062;8.950;2023-02-23T04:49:37;96249.59;;;8.50;100.00
52441;BME280;39611;46.062;8.950;2023-02-23T04:52:04;96250.66;;;8.49;100.00
52441;BME280;39611;46.062;8.950;2023-02-23T04:54:30;96248.03;;;8.49;100.00
52441;BME280;39611;46.062;8.950;2023-02-23T04:56:57;96248.56;;;8.51;100.00
52441;BME280;39611;46.062;8.950;2023-02-23T04:59:23;96251.75;;;8.48;100.00
52441;BME280;39611;46.062;8.950;2023-02-23T05:01:50;96243.53;;;8.50;100.00
52441;BME280;39611;46.062;8.950;2023-02-23T05:04:16;96250.13;;;8.47;100.00
52441;BME280;39611;46.062;8.950;2023-02-23T05:06:42;96256.47;;;8.46;100.00
52441;BME280;39611;46.062;8.950;2023-02-23T05:09:09;96258.03;;;8.52;100.00
52441;BME280;39611;46.062;8.950;2023-02-23T05:11:35;96267.28;;;8.60;100.00
52441;BME280;39611;46.062;8.950;2023-02-23T05:14:03;96253.56;;;8.58;100.00
52441;BME280;39611;46.062;8.950;2023-02-23T05:16:30;96265.41;;;8.45;100.00
52441;BME280;39611;46.062;8.950;2023-02-23T05:18:57;96265.94;;;8.42;100.00
52441;BME280;39611;46.062;8.950;2023-02-23T05:21:23;96257.00;;;8.48;100.00
52441;BME280;39611;46.062;8.950;2023-02-23T05:23:50;96261.75;;;8.46;100.00
52441;BME280;39611;46.062;8.950;2023-02-23T05:26:16;96250.13;;;8.47;100.00
52441;BME280;39611;46.062;8.950;2023-02-23T05:28:43;96251.44;;;8.45;100.00
52441;BME280;39611;46.062;8.950;2023-02-23T05:31:10;96251.44;;;8.35;100.00
52441;BME280;39611;46.062;8.950;2023-02-23T05:33:37;96252.19;;;8.25;100.00
52441;BME280;39611;46.062;8.950;2023-02-23T05:36:09;96253.28;;;8.24;100.00
52441;BME280;39611;46.062;8.950;2023-02-23T05:38:36;96254.84;;;8.25;100.00
52441;BME280;39611;46.062;8.950;2023-02-23T05:41:05;96251.69;;;8.28;100.00
52441;BME280;39611;46.062;8.950;2023-02-23T05:43:32;96256.44;;;8.26;100.00
52441;BME280;39611;46.062;8.950;2023-02-23T05:45:58;96258.53;;;8.29;100.00
52441;BME280;39611;46.062;8.950;2023-02-23T05:48:27;96255.38;;;8.27;100.00
52441;BME280;39611;46.062;8.950;2023-02-23T05:50:54;96250.63;;;8.24;100.00
52441;BME280;39611;46.062;8.950;2023-02-23T05:53:20;96260.63;;;8.17;100.00
52441;BME280;39611;46.062;8.950;2023-02-23T05:55:46;96260.38;;;8.18;100.00
52441;BME280;39611;46.062;8.950;2023-02-23T05:58:13;96266.19;;;8.15;100.00
52441;BME280;39611;46.062;8.950;2023-02-23T06:00:39;96267.22;;;8.14;100.00
52441;BME280;39611;46.062;8.950;2023-02-23T06:03:06;96263.28;;;8.17;100.00
52441;BME280;39611;46.062;8.950;2023-02-23T06:05:32;96273.28;;;8.30;100.00
52441;BME280;39611;46.062;8.950;2023-02-23T06:07:59;96275.94;;;8.30;100.00
52441;BME280;39611;46.062;8.950;2023-02-23T06:10:25;96266.97;;;8.31;100.00
52441;BME280;39611;46.062;8.950;2023-02-23T06:12:52;96275.66;;;8.26;100.00
52441;BME280;39611;46.062;8.950;2023-02-23T06:15:18;96267.53;;;8.33;100.00
52441;BME280;39611;46.062;8.950;2023-02-23T06:17:45;96271.97;;;8.27;100.00
52441;BME280;39611;46.062;8.950;2023-02-23T06:20:11;96272.50;;;8.19;100.00
52441;BME280;39611;46.062;8.950;2023-02-23T06:22:38;96269.34;;;8.17;100.00
52441;BME280;39611;46.062;8.950;2023-02-23T06:25:05;96273.31;;;8.20;100.00
52441;BME280;39611;46.062;8.950;2023-02-23T06:27:38;96274.34;;;8.24;100.00
52441;BME280;39611;46.062;8.950;2023-02-23T06:30:05;96277.50;;;8.21;100.00
52441;BME280;39611;46.062;8.950;2023-02-23T06:32:32;96291.22;;;8.13;100.00
52441;BME280;39611;46.062;8.950;2023-02-23T06:34:58;96285.16;;;8.12;100.00
52441;BME280;39611;46.062;8.950;2023-02-23T06:37:25;96279.63;;;8.19;100.00
52441;BME280;39611;46.062;8.950;2023-02-23T06:39:51;96279.09;;;8.22;100.00
52441;BME280;39611;46.062;8.950;2023-02-23T06:42:17;96284.09;;;8.18;100.00
52441;BME280;39611;46.062;8.950;2023-02-23T06:44:44;96285.16;;;8.22;100.00
52441;BME280;39611;46.062;8.950;2023-02-23T06:47:10;96294.91;;;8.22;100.00
52441;BME280;39611;46.062;8.950;2023-02-23T06:49:37;96292.25;;;8.27;100.00
52441;BME280;39611;46.062;8.950;2023-02-23T06:52:06;96292.81;;;8.34;100.00
52441;BME280;39611;46.062;8.950;2023-02-23T06:54:33;96298.31;;;8.27;100.00
52441;BME280;39611;46.062;8.950;2023-02-23T06:57:00;96300.72;;;8.29;100.00
52441;BME280;39611;46.062;8.950;2023-02-23T06:59:26;96297.53;;;8.27;100.00
52441;BME280;39611;46.062;8.950;2023-02-23T07:01:52;96306.25;;;8.32;100.00
52441;BME280;39611;46.062;8.950;2023-02-23T07:04:19;96303.94;;;8.46;100.00
52441;BME280;39611;46.062;8.950;2023-02-23T07:06:45;96313.69;;;8.46;100.00
52441;BME280;39611;46.062;8.950;2023-02-23T07:09:13;96316.81;;;8.48;100.00
52441;BME280;39611;46.062;8.950;2023-02-23T07:11:41;96319.22;;;8.44;100.00
52441;BME280;39611;46.062;8.950;2023-02-23T07:14:10;96318.69;;;8.47;100.00
52441;BME280;39611;46.062;8.950;2023-02-23T07:16:46;96318.69;;;8.52;100.00
52441;BME280;39611;46.062;8.950;2023-02-23T07:19:13;96316.56;;;8.55;100.00
52441;BME280;39611;46.062;8.950;2023-02-23T07:21:40;96321.31;;;8.58;100.00
52441;BME280;39611;46.062;8.950;2023-02-23T07:24:06;96320.78;;;8.61;100.00
52441;BME280;39611;46.062;8.950;2023-02-23T07:26:34;96330.81;;;8.59;100.00
52441;BME280;39611;46.062;8.950;2023-02-23T07:29:01;96326.34;;;8.59;100.00
52441;BME280;39611;46.062;8.950;2023-02-23T07:31:28;96329.22;;;8.68;100.00
52441;BME280;39611;46.062;8.950;2023-02-23T07:33:54;96331.88;;;8.63;100.00
52441;BME280;39611;46.062;8.950;2023-02-23T07:36:22;96330.00;;;8.63;100.00
52441;BME280;39611;46.062;8.950;2023-02-23T07:38:49;96328.69;;;8.61;100.00
52441;BME280;39611;46.062;8.950;2023-02-23T07:41:15;96328.97;;;8.64;100.00
52441;BME280;39611;46.062;8.950;2023-02-23T07:43:42;96332.41;;;8.70;100.00
52441;BME280;39611;46.062;8.950;2023-02-23T07:46:09;96333.44;;;8.74;100.00
52441;BME280;39611;46.062;8.950;2023-02-23T07:48:35;96333.19;;;8.75;100.00
52441;BME280;39611;46.062;8.950;2023-02-23T07:51:07;96335.56;;;8.82;100.00
52441;BME280;39611;46.062;8.950;2023-02-23T07:53:35;96341.88;;;8.86;100.00
52441;BME280;39611;46.062;8.950;2023-02-23T07:56:01;96334.50;;;8.93;100.00
52441;BME280;39611;46.062;8.950;2023-02-23T07:58:29;96330.00;;;8.94;100.00
52441;BME280;39611;46.062;8.950;2023-02-23T08:00:56;96337.66;;;9.01;100.00
52441;BME280;39611;46.062;8.950;2023-02-23T08:03:23;96338.72;;;8.94;100.00
52441;BME280;39611;46.062;8.950;2023-02-23T08:05:49;96336.91;;;8.85;100.00
52441;BME280;39611;46.062;8.950;2023-02-23T08:08:15;96337.69;;;8.90;100.00
52441;BME280;39611;46.062;8.950;2023-02-23T08:10:42;96339.25;;;8.96;100.00
52441;BME280;39611;46.062;8.950;2023-02-23T08:13:08;96337.69;;;8.90;100.00
52441;BME280;39611;46.062;8.950;2023-02-23T08:15:35;96347.44;;;8.85;100.00
52441;BME280;39611;46.062;8.950;2023-02-23T08:18:01;96338.22;;;8.87;100.00
52441;BME280;39611;46.062;8.950;2023-02-23T08:20:27;96339.25;;;8.91;100.00
52441;BME280;39611;46.062;8.950;2023-02-23T08:22:57;96337.13;;;9.09;100.00
52441;BME280;39611;46.062;8.950;2023-02-23T08:25:24;96338.69;;;9.15;100.00
52441;BME280;39611;46.062;8.950;2023-02-23T08:27:53;96331.53;;;9.21;100.00
52441;BME280;39611;46.062;8.950;2023-02-23T08:30:21;96337.66;;;9.21;100.00
52441;BME280;39611;46.062;8.950;2023-02-23T08:32:48;96339.19;;;9.27;100.00
52441;BME280;39611;46.062;8.950;2023-02-23T08:35:16;96339.72;;;9.39;100.00
52441;BME280;39611;46.062;8.950;2023-02-23T08:37:45;96337.84;;;9.45;100.00
52441;BME280;39611;46.062;8.950;2023-02-23T08:40:12;96339.69;;;9.45;100.00
52441;BME280;39611;46.062;8.950;2023-02-23T08:42:41;96341.78;;;9.48;100.00
52441;BME280;39611;46.062;8.950;2023-02-23T08:45:08;96338.09;;;9.49;100.00
52441;BME280;39611;46.062;8.950;2023-02-23T08:47:35;96342.56;;;9.58;100.00
52441;BME280;39611;46.062;8.950;2023-02-23T08:50:03;96340.44;;;9.60;100.00
52441;BME280;39611;46.062;8.950;2023-02-23T08:52:30;96344.91;;;9.65;100.00
52441;BME280;39611;46.062;8.950;2023-02-23T08:54:57;96344.09;;;9.70;100.00
52441;BME280;39611;46.062;8.950;2023-02-23T08:57:23;96338.22;;;9.83;100.00
52441;BME280;39611;46.062;8.950;2023-02-23T08:59:50;96339.56;;;9.75;99.57
52441;BME280;39611;46.062;8.950;2023-02-23T09:02:16;96340.66;;;9.74;98.92
52441;BME280;39611;46.062;8.950;2023-02-23T09:04:43;96339.00;;;9.89;99.27
52441;BME280;39611;46.062;8.950;2023-02-23T09:07:14;96341.38;;;9.90;100.00
52441;BME280;39611;46.062;8.950;2023-02-23T09:09:41;96339.47;;;9.96;100.00
52441;BME280;39611;46.062;8.950;2023-02-23T09:12:07;96348.47;;;10.00;100.00
52441;BME280;39611;46.062;8.950;2023-02-23T09:14:34;96336.56;;;10.02;99.65
52441;BME280;39611;46.062;8.950;2023-02-23T09:17:02;96344.47;;;10.07;98.13
52441;BME280;39611;46.062;8.950;2023-02-23T09:19:28;96346.28;;;10.12;97.59
52441;BME280;39611;46.062;8.950;2023-02-23T09:21:55;96349.97;;;10.11;98.54
52441;BME280;39611;46.062;8.950;2023-02-23T09:24:21;96344.72;;;10.06;99.08
52441;BME280;39611;46.062;8.950;2023-02-23T09:26:48;96341.81;;;10.07;99.55
52441;BME280;39611;46.062;8.950;2023-02-23T09:29:14;96343.66;;;10.12;98.42
52441;BME280;39611;46.062;8.950;2023-02-23T09:31:41;96340.78;;;10.03;97.33
52441;BME280;39611;46.062;8.950;2023-02-23T09:34:09;96341.84;;;10.02;96.17
52441;BME280;39611;46.062;8.950;2023-02-23T09:36:37;96341.09;;;9.92;95.45
52441;BME280;39611;46.062;8.950;2023-02-23T09:39:04;96335.00;;;10.01;94.79
52441;BME280;39611;46.062;8.950;2023-02-23T09:42:15;96329.44;;;9.98;91.89
52441;BME280;39611;46.062;8.950;2023-02-23T09:49:49;96334.59;;;10.28;89.23
52441;BME280;39611;46.062;8.950;2023-02-23T09:52:22;96336.09;;;10.40;90.59
52441;BME280;39611;46.062;8.950;2023-02-23T09:54:50;96331.31;;;10.42;92.04
52441;BME280;39611;46.062;8.950;2023-02-23T09:57:22;96329.41;;;10.53;92.32
52441;BME280;39611;46.062;8.950;2023-02-23T09:59:50;96334.91;;;10.61;92.29
52441;BME280;39611;46.062;8.950;2023-02-23T10:02:18;96330.63;;;10.65;90.88
52441;BME280;39611;46.062;8.950;2023-02-23T10:04:51;96331.72;;;10.64;90.09
52441;BME280;39611;46.062;8.950;2023-02-23T10:07:33;96324.00;;;10.68;90.71
52441;BME280;39611;46.062;8.950;2023-02-23T10:13:05;96325.19;;;10.86;88.03
52441;BME280;39611;46.062;8.950;2023-02-23T10:15:56;96321.72;;;10.90;88.48
52441;BME280;39611;46.062;8.950;2023-02-23T10:21:15;96325.59;;;10.98;85.95
52441;BME280;39611;46.062;8.950;2023-02-23T10:26:17;96323.47;;;11.00;85.08
52441;BME280;39611;46.062;8.950;2023-02-23T10:28:45;96330.84;;;11.03;83.62
52441;BME280;39611;46.062;8.950;2023-02-23T10:31:26;96325.03;;;11.01;82.69
52441;BME280;39611;46.062;8.950;2023-02-23T10:33:57;96323.97;;;11.02;84.57
52441;BME280;39611;46.062;8.950;2023-02-23T10:36:41;96322.72;;;11.24;82.61
52441;BME280;39611;46.062;8.950;2023-02-23T10:39:11;96325.81;;;11.31;83.03
52441;BME280;39611;46.062;8.950;2023-02-23T10:41:38;96320.19;;;11.37;83.81
52441;BME280;39611;46.062;8.950;2023-02-23T10:44:17;96325.44;;;11.43;81.43
52441;BME280;39611;46.062;8.950;2023-02-23T10:46:49;96318.56;;;11.42;80.39
52441;BME280;39611;46.062;8.950;2023-02-23T10:49:21;96328.13;;;11.37;81.67
52441;BME280;39611;46.062;8.950;2023-02-23T10:51:49;96332.34;;;11.38;80.69
52441;BME280;39611;46.062;8.950;2023-02-23T10:57:02;96325.75;;;11.36;81.05
52441;BME280;39611;46.062;8.950;2023-02-23T10:59:28;96327.28;;;11.42;80.72
52441;BME280;39611;46.062;8.950;2023-02-23T11:01:55;96326.22;;;11.43;80.43
52441;BME280;39611;46.062;8.950;2023-02-23T11:04:30;96324.09;;;11.45;80.79
52441;BME280;39611;46.062;8.950;2023-02-23T11:07:15;96322.72;;;11.48;81.03
52441;BME280;39611;46.062;8.950;2023-02-23T11:09:43;96318.78;;;11.45;79.96
52441;BME280;39611;46.062;8.950;2023-02-23T11:12:28;96324.25;;;11.54;79.31
52441;BME280;39611;46.062;8.950;2023-02-23T11:15:26;96321.28;;;11.36;77.39
52441;BME280;39611;46.062;8.950;2023-02-23T11:18:21;96324.09;;;11.45;78.34
52441;BME280;39611;46.062;8.950;2023-02-23T11:20:50;96320.34;;;11.46;79.54
52441;BME280;39611;46.062;8.950;2023-02-23T11:25:57;96318.06;;;11.40;76.40
52441;BME280;39611;46.062;8.950;2023-02-23T11:31:02;96304.31;;;11.37;75.44
52441;BME280;39611;46.062;8.950;2023-02-23T11:33:32;96308.56;;;11.33;76.10
52441;BME280;39611;46.062;8.950;2023-02-23T11:36:25;96305.38;;;11.36;77.19
52441;BME280;39611;46.062;8.950;2023-02-23T11:39:04;96304.03;;;11.39;75.99
52441;BME280;39611;46.062;8.950;2023-02-23T11:41:32;96303.47;;;11.42;79.64
52441;BME280;39611;46.062;8.950;2023-02-23T11:44:01;96299.22;;;11.41;77.97
52441;BME280;39611;46.062;8.950;2023-02-23T11:46:35;96290.22;;;11.42;78.29
52441;BME280;39611;46.062;8.950;2023-02-23T11:49:08;96296.09;;;11.39;76.36
52441;BME280;39611;46.062;8.950;2023-02-23T11:51:40;96293.91;;;11.41;78.10
52441;BME280;39611;46.062;8.950;2023-02-23T11:54:27;96293.91;;;11.41;75.09
52441;BME280;39611;46.062;8.950;2023-02-23T11:56:55;96294.50;;;11.38;76.36
52441;BME280;39611;46.062;8.950;2023-02-23T11:59:27;96291.28;;;11.41;76.32
52441;BME280;39611;46.062;8.950;2023-02-23T12:02:03;96293.44;;;11.39;76.07
52441;BME280;39611;46.062;8.950;2023-02-23T12:04:35;96293.88;;;11.46;75.32
52441;BME280;39611;46.062;8.950;2023-02-23T12:07:26;96296.03;;;11.44;75.54
52441;BME280;39611;46.062;8.950;2023-02-23T12:10:02;96296.81;;;11.45;74.72
52441;BME280;39611;46.062;8.950;2023-02-23T12:12:38;96293.13;;;11.41;74.12
52441;BME280;39611;46.062;8.950;2023-02-23T12:15:11;96293.88;;;11.46;75.77
52441;BME280;39611;46.062;8.950;2023-02-23T12:17:51;96290.44;;;11.46;76.54
52441;BME280;39611;46.062;8.950;2023-02-23T12:20:28;96289.72;;;11.40;75.46
52441;BME280;39611;46.062;8.950;2023-02-23T12:22:59;96283.91;;;11.38;74.21
52441;BME280;39611;46.062;8.950;2023-02-23T12:25:34;96281.91;;;11.49;74.15
52441;BME280;39611;46.062;8.950;2023-02-23T12:28:19;96280.34;;;11.48;76.63
52441;BME280;39611;46.062;8.950;2023-02-23T12:30:54;96274.47;;;11.51;77.27
52441;BME280;39611;46.062;8.950;2023-02-23T12:33:29;96275.25;;;11.51;76.22
52441;BME280;39611;46.062;8.950;2023-02-23T12:36:03;96272.63;;;11.51;76.44
52441;BME280;39611;46.062;8.950;2023-02-23T12:39:11;96277.38;;;11.54;75.89
52441;BME280;39611;46.062;8.950;2023-02-23T12:41:59;96275.72;;;11.58;75.15
52441;BME280;39611;46.062;8.950;2023-02-23T12:47:22;96273.13;;;11.53;75.64
52441;BME280;39611;46.062;8.950;2023-02-23T12:50:04;96271.72;;;11.61;75.06
52441;BME280;39611;46.062;8.950;2023-02-23T12:52:48;96271.44;;;11.63;76.85
52441;BME280;39611;46.062;8.950;2023-02-23T12:55:23;96267.19;;;11.62;75.29
52441;BME280;39611;46.062;8.950;2023-02-23T13:01:03;96271.66;;;11.66;75.88
52441;BME280;39611;46.062;8.950;2023-02-23T13:06:19;96263.97;;;11.65;74.52
52441;BME280;39611;46.062;8.950;2023-02-23T13:14:10;96263.91;;;11.70;75.15
52441;BME280;39611;46.062;8.950;2023-02-23T13:19:19;96266.78;;;11.54;72.63
52441;BME280;39611;46.062;8.950;2023-02-23T13:21:53;96262.69;;;11.62;72.84
52441;BME280;39611;46.062;8.950;2023-02-23T13:24:26;96257.69;;;11.61;72.27
52441;BME280;39611;46.062;8.950;2023-02-23T13:27:09;96259.50;;;11.65;72.28
52441;BME280;39611;46.062;8.950;2023-02-23T13:29:45;96259.69;;;11.69;73.30
52441;BME280;39611;46.062;8.950;2023-02-23T13:32:25;96257.81;;;11.69;73.88
52441;BME280;39611;46.062;8.950;2023-02-23T13:34:59;96255.75;;;11.66;72.36
52441;BME280;39611;46.062;8.950;2023-02-23T13:37:34;96259.91;;;11.72;73.38
52441;BME280;39611;46.062;8.950;2023-02-23T13:43:23;96261.19;;;11.75;72.73
52441;BME280;39611;46.062;8.950;2023-02-23T13:46:10;96266.78;;;11.73;73.57
52441;BME280;39611;46.062;8.950;2023-02-23T13:56:33;96262.69;;;11.86;71.61
52441;BME280;39611;46.062;8.950;2023-02-23T13:59:07;96260.59;;;11.83;72.39
52441;BME280;39611;46.062;8.950;2023-02-23T14:04:05;96265.19;;;11.72;69.54
52441;BME280;39611;46.062;8.950;2023-02-23T14:06:39;96267.38;;;11.70;69.94
52441;BME280;39611;46.062;8.950;2023-02-23T14:09:19;96261.25;;;11.70;70.46
52441;BME280;39611;46.062;8.950;2023-02-23T14:11:51;96262.28;;;11.74;71.86
52441;BME280;39611;46.062;8.950;2023-02-23T14:22:33;96269.16;;;11.75;69.52
52441;BME280;39611;46.062;8.950;2023-02-23T14:28:00;96258.53;;;11.75;74.53
52441;BME280;39611;46.062;8.950;2023-02-23T14:30:28;96264.41;;;11.72;75.50
52441;BME280;39611;46.062;8.950;2023-02-23T14:33:00;96259.69;;;11.69;71.22
52441;BME280;39611;46.062;8.950;2023-02-23T14:35:47;96260.91;;;11.76;72.82
52441;BME280;39611;46.062;8.950;2023-02-23T14:38:26;96259.91;;;11.72;70.95
52441;BME280;39611;46.062;8.950;2023-02-23T14:41:11;96259.69;;;11.69;71.83
52441;BME280;39611;46.062;8.950;2023-02-23T14:43:40;96259.44;;;11.70;71.76
52441;BME280;39611;46.062;8.950;2023-02-23T14:46:19;96260.22;;;11.71;71.38
52441;BME280;39611;46.062;8.950;2023-02-23T14:49:00;96253.38;;;11.65;72.05
52441;BME280;39611;46.062;8.950;2023-02-23T14:51:35;96258.13;;;11.68;74.23
52441;BME280;39611;46.062;8.950;2023-02-23T14:54:21;96258.91;;;11.68;75.09
52441;BME280;39611;46.062;8.950;2023-02-23T14:56:52;96260.28;;;11.66;75.99
52441;BME280;39611;46.062;8.950;2023-02-23T14:59:21;96258.13;;;11.68;74.78